sensor_id;sensor_type;location;lat;lon;timestamp;pressure;altitude;pressure_sealevel;temperature;humidity
37291;BME280;23175;-33.706;151.094;2022-12-07T00:01:27;98798.94;;;21.47;25.91
37291;BME280;23175;-33.706;151.094;2022-12-07T00:04:00;98803.71;;;22.28;26.10
37291;BME280;23175;-33.706;151.094;2022-12-07T00:06:31;98804.54;;;20.60;25.29
37291;BME280;23175;-33.706;151.094;2022-12-07T00:09:01;98791.82;;;21.73;24.36
37291;BME280;23175;-33.706;151.094;2022-12-07T00:11:31;98790.77;;;22.23;24.46
37291;BME280;23175;-33.706;151.094;2022-12-07T00:14:03;98785.30;;;21.49;24.32
37291;BME280;23175;-33.706;151.094;2022-12-07T00:16:35;98774.00;;;21.22;24.73
37291;BME280;23175;-33.706;151.094;2022-12-07T00:19:05;98763.50;;;22.73;23.55
37291;BME280;23175;-33.706;151.094;2022-12-07T00:21:37;98760.89;;;23.45;23.52
37291;BME280;23175;-33.706;151.094;2022-12-07T00:24:07;98764.13;;;20.64;26.22
37291;BME280;23175;-33.706;151.094;2022-12-07T00:26:39;98758.44;;;20.53;26.88
37291;BME280;23175;-33.706;151.094;2022-12-07T00:29:16;98752.81;;;21.79;26.33
37291;BME280;23175;-33.706;151.094;2022-12-07T00:31:46;98752.82;;;21.67;26.48
37291;BME280;23175;-33.706;151.094;2022-12-07T00:34:18;98753.09;;;20.92;26.18
37291;BME280;23175;-33.706;151.094;2022-12-07T00:36:48;98750.64;;;20.73;25.67
37291;BME280;23175;-33.706;151.094;2022-12-07T00:39:19;98750.60;;;22.46;24.65
37291;BME280;23175;-33.706;151.094;2022-12-07T00:41:49;98742.03;;;21.66;24.79
37291;BME280;23175;-33.706;151.094;2022-12-07T00:44:19;98742.95;;;21.22;25.38
37291;BME280;23175;-33.706;151.094;2022-12-07T00:46:49;98745.44;;;20.97;25.87
37291;BME280;23175;-33.706;151.094;2022-12-07T00:49:19;98752.26;;;22.55;25.52
37291;BME280;23175;-33.706;151.094;2022-12-07T00:51:50;98755.88;;;21.35;25.78
37291;BME280;23175;-33.706;151.094;2022-12-07T00:54:19;98761.94;;;21.38;25.43
37291;BME280;23175;-33.706;151.094;2022-12-07T00:56:49;98760.75;;;20.76;26.26
37291;BME280;23175;-33.706;151.094;2022-12-07T00:59:20;98761.08;;;21.34;26.49
37291;BME280;23175;-33.706;151.094;2022-12-07T01:01:50;98757.39;;;20.98;26.71
37291;BME280;23175;-33.706;151.094;2022-12-07T01:04:20;98754.79;;;22.64;25.64
37291;BME280;23175;-33.706;151.094;2022-12-07T01:06:50;98755.42;;;22.56;25.47
37291;BME280;23175;-33.706;151.094;2022-12-07T01:09:20;98762.93;;;20.68;27.42
37291;BME280;23175;-33.706;151.094;2022-12-07T01:11:50;98771.82;;;18.87;28.65
37291;BME280;23175;-33.706;151.094;2022-12-07T01:14:20;98766.52;;;20.46;28.71
37291;BME280;23175;-33.706;151.094;2022-12-07T01:16:50;98761.48;;;22.28;27.78
37291;BME280;23175;-33.706;151.094;2022-12-07T01:19:20;98759.02;;;23.63;27.06
37291;BME280;23175;-33.706;151.094;2022-12-07T01:21:50;98752.43;;;23.34;27.11
37291;BME280;23175;-33.706;151.094;2022-12-07T01:24:20;98749.38;;;22.92;28.18
37291;BME280;23175;-33.706;151.094;2022-12-07T01:26:51;98747.07;;;20.91;29.76
37291;BME280;23175;-33.706;151.094;2022-12-07T01:29:21;98744.06;;;22.65;27.18
37291;BME280;23175;-33.706;151.094;2022-12-07T01:31:51;98750.45;;;22.64;28.13
37291;BME280;23175;-33.706;151.094;2022-12-07T01:34:21;98744.53;;;22.73;28.09
37291;BME280;23175;-33.706;151.094;2022-12-07T01:36:51;98743.80;;;24.25;26.53
37291;BME280;23175;-33.706;151.094;2022-12-07T01:39:21;98743.26;;;23.66;27.50
37291;BME280;23175;-33.706;151.094;2022-12-07T01:41:51;98743.43;;;23.22;28.42
37291;BME280;23175;-33.706;151.094;2022-12-07T01:44:24;98741.80;;;24.43;27.36
37291;BME280;23175;-33.706;151.094;2022-12-07T01:46:55;98734.82;;;23.09;28.86
37291;BME280;23175;-33.706;151.094;2022-12-07T01:49:29;98736.87;;;22.43;30.03
37291;BME280;23175;-33.706;151.094;2022-12-07T01:52:08;98735.23;;;19.75;30.66
37291;BME280;23175;-33.706;151.094;2022-12-07T01:54:40;98728.64;;;19.24;29.38
37291;BME280;23175;-33.706;151.094;2022-12-07T01:57:11;98728.32;;;20.58;27.59
37291;BME280;23175;-33.706;151.094;2022-12-07T01:59:43;98723.99;;;21.73;26.85
37291;BME280;23175;-33.706;151.094;2022-12-07T02:02:20;98714.51;;;20.12;28.40
37291;BME280;23175;-33.706;151.094;2022-12-07T02:04:52;98712.71;;;21.52;27.67
37291;BME280;23175;-33.706;151.094;2022-12-07T02:07:24;98716.50;;;21.25;25.80
37291;BME280;23175;-33.706;151.094;2022-12-07T02:09:56;98712.76;;;19.08;28.87
37291;BME280;23175;-33.706;151.094;2022-12-07T02:12:26;98713.56;;;19.66;29.11
37291;BME280;23175;-33.706;151.094;2022-12-07T02:14:56;98699.86;;;20.80;28.29
37291;BME280;23175;-33.706;151.094;2022-12-07T02:17:31;98699.83;;;21.55;27.26
37291;BME280;23175;-33.706;151.094;2022-12-07T02:20:16;98699.08;;;21.62;28.10
37291;BME280;23175;-33.706;151.094;2022-12-07T02:24:47;98698.24;;;24.23;25.49
37291;BME280;23175;-33.706;151.094;2022-12-07T02:27:38;98696.89;;;23.72;25.54
37291;BME280;23175;-33.706;151.094;2022-12-07T02:30:10;98689.81;;;24.05;25.11
37291;BME280;23175;-33.706;151.094;2022-12-07T02:32:46;98686.30;;;22.62;25.77
37291;BME280;23175;-33.706;151.094;2022-12-07T02:35:21;98686.42;;;23.39;25.09
37291;BME280;23175;-33.706;151.094;2022-12-07T02:38:01;98685.75;;;24.97;24.57
37291;BME280;23175;-33.706;151.094;2022-12-07T02:40:38;98672.99;;;24.28;24.80
37291;BME280;23175;-33.706;151.094;2022-12-07T02:43:14;98651.57;;;22.34;25.61
37291;BME280;23175;-33.706;151.094;2022-12-07T02:45:47;98660.60;;;24.64;24.78
37291;BME280;23175;-33.706;151.094;2022-12-07T02:48:20;98655.00;;;23.19;25.84
37291;BME280;23175;-33.706;151.094;2022-12-07T02:50:52;98651.53;;;22.72;25.52
37291;BME280;23175;-33.706;151.094;2022-12-07T02:53:40;98652.92;;;24.06;25.19
37291;BME280;23175;-33.706;151.094;2022-12-07T02:56:18;98650.80;;;22.49;26.12
37291;BME280;23175;-33.706;151.094;2022-12-07T02:58:59;98652.64;;;22.42;26.14
37291;BME280;23175;-33.706;151.094;2022-12-07T03:01:39;98653.31;;;24.40;25.57
37291;BME280;23175;-33.706;151.094;2022-12-07T03:04:24;98645.57;;;24.49;25.20
37291;BME280;23175;-33.706;151.094;2022-12-07T03:07:04;98639.14;;;23.96;25.83
37291;BME280;23175;-33.706;151.094;2022-12-07T03:09:40;98639.30;;;24.43;26.74
37291;BME280;23175;-33.706;151.094;2022-12-07T03:12:17;98634.99;;;23.28;25.52
37291;BME280;23175;-33.706;151.094;2022-12-07T03:14:52;98637.53;;;23.05;25.52
37291;BME280;23175;-33.706;151.094;2022-12-07T03:17:30;98636.10;;;24.21;24.95
37291;BME280;23175;-33.706;151.094;2022-12-07T03:20:03;98630.92;;;23.58;26.74
37291;BME280;23175;-33.706;151.094;2022-12-07T03:22:37;98632.83;;;23.74;26.60
37291;BME280;23175;-33.706;151.094;2022-12-07T03:25:13;98637.87;;;23.53;25.93
37291;BME280;23175;-33.706;151.094;2022-12-07T03:27:48;98631.14;;;24.70;24.76
37291;BME280;23175;-33.706;151.094;2022-12-07T03:30:21;98626.26;;;21.47;27.64
37291;BME280;23175;-33.706;151.094;2022-12-07T03:32:56;98630.24;;;24.12;25.06
37291;BME280;23175;-33.706;151.094;2022-12-07T03:35:31;98617.99;;;21.42;27.46
37291;BME280;23175;-33.706;151.094;2022-12-07T03:38:08;98623.18;;;22.72;25.43
37291;BME280;23175;-33.706;151.094;2022-12-07T03:40:46;98629.36;;;21.14;27.31
37291;BME280;23175;-33.706;151.094;2022-12-07T03:43:18;98639.28;;;22.08;26.51
37291;BME280;23175;-33.706;151.094;2022-12-07T03:45:59;98636.98;;;22.15;25.93
37291;BME280;23175;-33.706;151.094;2022-12-07T03:48:35;98632.90;;;22.21;26.61
37291;BME280;23175;-33.706;151.094;2022-12-07T03:51:11;98628.99;;;22.30;26.18
37291;BME280;23175;-33.706;151.094;2022-12-07T03:53:48;98618.12;;;23.26;25.65
37291;BME280;23175;-33.706;151.094;2022-12-07T03:56:22;98618.81;;;24.65;25.38
37291;BME280;23175;-33.706;151.094;2022-12-07T03:58:53;98621.48;;;24.82;23.51
37291;BME280;23175;-33.706;151.094;2022-12-07T04:01:25;98627.39;;;22.31;26.93
37291;BME280;23175;-33.706;151.094;2022-12-07T04:03:55;98631.49;;;22.13;25.59
37291;BME280;23175;-33.706;151.094;2022-12-07T04:06:25;98631.96;;;23.09;25.90
37291;BME280;23175;-33.706;151.094;2022-12-07T04:08:55;98608.43;;;23.80;25.06
37291;BME280;23175;-33.706;151.094;2022-12-07T04:11:25;98597.37;;;24.07;23.65
37291;BME280;23175;-33.706;151.094;2022-12-07T04:13:55;98597.87;;;24.88;23.29
37291;BME280;23175;-33.706;151.094;2022-12-07T04:16:25;98582.04;;;21.46;26.43
37291;BME280;23175;-33.706;151.094;2022-12-07T04:18:55;98576.38;;;23.65;24.01
37291;BME280;23175;-33.706;151.094;2022-12-07T04:21:25;98570.85;;;23.15;24.45
37291;BME280;23175;-33.706;151.094;2022-12-07T04:23:55;98565.39;;;22.63;24.61
37291;BME280;23175;-33.706;151.094;2022-12-07T04:26:25;98556.56;;;19.77;26.46
37291;BME280;23175;-33.706;151.094;2022-12-07T04:28:55;98551.82;;;23.18;24.40
37291;BME280;23175;-33.706;151.094;2022-12-07T04:31:25;98541.40;;;23.02;23.89
37291;BME280;23175;-33.706;151.094;2022-12-07T04:33:55;98537.12;;;24.40;23.24
37291;BME280;23175;-33.706;151.094;2022-12-07T04:36:25;98524.29;;;22.62;24.40
37291;BME280;23175;-33.706;151.094;2022-12-07T04:38:55;98522.82;;;24.00;22.93
37291;BME280;23175;-33.706;151.094;2022-12-07T04:41:26;98543.45;;;23.36;24.15
37291;BME280;23175;-33.706;151.094;2022-12-07T04:43:57;98548.64;;;23.35;24.82
37291;BME280;23175;-33.706;151.094;2022-12-07T04:46:30;98547.30;;;21.36;25.38
37291;BME280;23175;-33.706;151.094;2022-12-07T04:49:04;98551.82;;;20.96;25.18
37291;BME280;23175;-33.706;151.094;2022-12-07T04:51:34;98546.81;;;21.47;23.88
37291;BME280;23175;-33.706;151.094;2022-12-07T04:54:04;98542.23;;;20.18;24.55
37291;BME280;23175;-33.706;151.094;2022-12-07T04:56:35;98540.26;;;21.62;23.77
37291;BME280;23175;-33.706;151.094;2022-12-07T04:59:05;98533.33;;;22.17;21.93
37291;BME280;23175;-33.706;151.094;2022-12-07T05:01:35;98537.95;;;22.46;21.95
37291;BME280;23175;-33.706;151.094;2022-12-07T05:04:05;98538.10;;;21.76;22.34
37291;BME280;23175;-33.706;151.094;2022-12-07T05:06:36;98538.36;;;20.98;22.96
37291;BME280;23175;-33.706;151.094;2022-12-07T05:09:05;98492.34;;;21.07;23.87
37291;BME280;23175;-33.706;151.094;2022-12-07T05:11:36;98489.58;;;23.52;20.50
37291;BME280;23175;-33.706;151.094;2022-12-07T05:14:08;98488.21;;;21.32;22.71
37291;BME280;23175;-33.706;151.094;2022-12-07T05:16:38;98481.15;;;21.67;21.85
37291;BME280;23175;-33.706;151.094;2022-12-07T05:19:10;98483.80;;;24.01;20.65
37291;BME280;23175;-33.706;151.094;2022-12-07T05:21:41;98493.73;;;24.33;20.91
37291;BME280;23175;-33.706;151.094;2022-12-07T05:24:13;98491.74;;;23.78;21.35
37291;BME280;23175;-33.706;151.094;2022-12-07T05:26:44;98463.39;;;19.37;23.11
37291;BME280;23175;-33.706;151.094;2022-12-07T05:29:16;98500.96;;;19.76;24.50
37291;BME280;23175;-33.706;151.094;2022-12-07T05:31:46;98496.53;;;19.85;24.06
37291;BME280;23175;-33.706;151.094;2022-12-07T05:34:16;98527.63;;;18.85;25.13
37291;BME280;23175;-33.706;151.094;2022-12-07T05:36:46;98556.61;;;19.34;25.53
37291;BME280;23175;-33.706;151.094;2022-12-07T05:39:16;98564.46;;;19.66;26.45
37291;BME280;23175;-33.706;151.094;2022-12-07T05:41:46;98587.42;;;19.48;26.17
37291;BME280;23175;-33.706;151.094;2022-12-07T05:44:16;98607.98;;;18.81;27.92
37291;BME280;23175;-33.706;151.094;2022-12-07T05:46:46;98609.28;;;18.51;28.24
37291;BME280;23175;-33.706;151.094;2022-12-07T05:49:16;98595.30;;;18.97;28.01
37291;BME280;23175;-33.706;151.094;2022-12-07T05:51:46;98562.05;;;19.80;27.58
37291;BME280;23175;-33.706;151.094;2022-12-07T05:54:16;98528.59;;;18.92;28.39
37291;BME280;23175;-33.706;151.094;2022-12-07T05:56:46;98507.68;;;18.77;28.03
37291;BME280;23175;-33.706;151.094;2022-12-07T05:59:16;98500.81;;;21.22;26.11
37291;BME280;23175;-33.706;151.094;2022-12-07T06:01:46;98485.16;;;19.84;28.59
37291;BME280;23175;-33.706;151.094;2022-12-07T06:04:17;98476.67;;;20.40;26.68
37291;BME280;23175;-33.706;151.094;2022-12-07T06:06:47;98481.74;;;20.08;26.53
37291;BME280;23175;-33.706;151.094;2022-12-07T06:09:18;98479.57;;;20.14;26.76
37291;BME280;23175;-33.706;151.094;2022-12-07T06:11:48;98483.53;;;20.64;26.55
37291;BME280;23175;-33.706;151.094;2022-12-07T06:14:18;98487.34;;;19.90;27.17
37291;BME280;23175;-33.706;151.094;2022-12-07T06:16:49;98481.89;;;19.44;27.24
37291;BME280;23175;-33.706;151.094;2022-12-07T06:19:19;98490.97;;;21.22;25.74
37291;BME280;23175;-33.706;151.094;2022-12-07T06:21:49;98508.94;;;20.93;26.03
37291;BME280;23175;-33.706;151.094;2022-12-07T06:24:19;98518.67;;;19.88;27.68
37291;BME280;23175;-33.706;151.094;2022-12-07T06:26:50;98520.95;;;22.63;25.14
37291;BME280;23175;-33.706;151.094;2022-12-07T06:29:20;98521.02;;;21.02;26.36
37291;BME280;23175;-33.706;151.094;2022-12-07T06:31:50;98513.14;;;20.25;27.02
37291;BME280;23175;-33.706;151.094;2022-12-07T06:34:22;98517.12;;;18.42;29.29
37291;BME280;23175;-33.706;151.094;2022-12-07T06:36:53;98504.01;;;21.17;27.51
37291;BME280;23175;-33.706;151.094;2022-12-07T06:39:25;98486.21;;;20.22;28.45
37291;BME280;23175;-33.706;151.094;2022-12-07T06:41:55;98475.04;;;20.65;27.86
37291;BME280;23175;-33.706;151.094;2022-12-07T06:44:25;98467.17;;;22.27;26.07
37291;BME280;23175;-33.706;151.094;2022-12-07T06:46:55;98516.79;;;19.91;28.29
37291;BME280;23175;-33.706;151.094;2022-12-07T06:49:25;98546.59;;;19.67;29.39
37291;BME280;23175;-33.706;151.094;2022-12-07T06:51:55;98553.78;;;18.19;31.34
37291;BME280;23175;-33.706;151.094;2022-12-07T06:54:25;98540.71;;;19.26;29.45
37291;BME280;23175;-33.706;151.094;2022-12-07T06:56:55;98512.64;;;17.65;31.74
37291;BME280;23175;-33.706;151.094;2022-12-07T06:59:25;98488.04;;;17.61;32.34
37291;BME280;23175;-33.706;151.094;2022-12-07T07:01:55;98471.76;;;17.65;32.49
37291;BME280;23175;-33.706;151.094;2022-12-07T07:04:25;98462.58;;;20.34;30.01
37291;BME280;23175;-33.706;151.094;2022-12-07T07:06:55;98422.14;;;18.32;31.56
37291;BME280;23175;-33.706;151.094;2022-12-07T07:09:25;98451.56;;;19.85;30.28
37291;BME280;23175;-33.706;151.094;2022-12-07T07:11:55;98489.06;;;19.31;30.69
37291;BME280;23175;-33.706;151.094;2022-12-07T07:14:25;98493.39;;;19.21;31.51
37291;BME280;23175;-33.706;151.094;2022-12-07T07:16:55;98496.00;;;18.70;31.83
37291;BME280;23175;-33.706;151.094;2022-12-07T07:19:25;98502.43;;;18.46;32.57
37291;BME280;23175;-33.706;151.094;2022-12-07T07:21:55;98489.97;;;19.84;31.16
37291;BME280;23175;-33.706;151.094;2022-12-07T07:24:25;98511.92;;;18.65;32.08
37291;BME280;23175;-33.706;151.094;2022-12-07T07:26:55;98507.17;;;18.44;32.06
37291;BME280;23175;-33.706;151.094;2022-12-07T07:29:25;98501.34;;;17.38;33.44
37291;BME280;23175;-33.706;151.094;2022-12-07T07:31:56;98484.29;;;19.82;30.87
37291;BME280;23175;-33.706;151.094;2022-12-07T07:34:26;98494.43;;;18.19;32.36
37291;BME280;23175;-33.706;151.094;2022-12-07T07:36:56;98506.89;;;19.10;31.88
37291;BME280;23175;-33.706;151.094;2022-12-07T07:39:26;98509.73;;;17.78;33.30
37291;BME280;23175;-33.706;151.094;2022-12-07T07:41:56;98533.86;;;18.53;32.28
37291;BME280;23175;-33.706;151.094;2022-12-07T07:44:26;98537.32;;;18.21;32.82
37291;BME280;23175;-33.706;151.094;2022-12-07T07:46:56;98536.39;;;17.75;33.03
37291;BME280;23175;-33.706;151.094;2022-12-07T07:49:26;98520.85;;;17.96;33.27
37291;BME280;23175;-33.706;151.094;2022-12-07T07:51:56;98518.62;;;19.38;32.10
37291;BME280;23175;-33.706;151.094;2022-12-07T07:54:26;98508.66;;;20.96;30.25
37291;BME280;23175;-33.706;151.094;2022-12-07T07:56:56;98490.05;;;21.56;29.71
37291;BME280;23175;-33.706;151.094;2022-12-07T07:59:26;98502.76;;;17.56;34.09
37291;BME280;23175;-33.706;151.094;2022-12-07T08:01:56;98489.60;;;20.61;31.01
37291;BME280;23175;-33.706;151.094;2022-12-07T08:04:26;98480.85;;;18.19;33.56
37291;BME280;23175;-33.706;151.094;2022-12-07T08:06:58;98470.85;;;16.74;34.83
37291;BME280;23175;-33.706;151.094;2022-12-07T08:09:27;98506.05;;;19.36;32.23
37291;BME280;23175;-33.706;151.094;2022-12-07T08:11:57;98528.75;;;20.57;30.40
37291;BME280;23175;-33.706;151.094;2022-12-07T08:14:28;98531.45;;;20.18;31.05
37291;BME280;23175;-33.706;151.094;2022-12-07T08:16:58;98516.78;;;19.07;32.12
37291;BME280;23175;-33.706;151.094;2022-12-07T08:19:28;98470.82;;;22.73;28.99
37291;BME280;23175;-33.706;151.094;2022-12-07T08:21:57;98500.56;;;21.54;29.65
37291;BME280;23175;-33.706;151.094;2022-12-07T08:24:28;98561.98;;;22.47;28.81
37291;BME280;23175;-33.706;151.094;2022-12-07T08:26:58;98589.14;;;21.75;29.53
37291;BME280;23175;-33.706;151.094;2022-12-07T08:29:28;98580.95;;;22.10;29.96
37291;BME280;23175;-33.706;151.094;2022-12-07T08:31:58;98562.64;;;20.85;31.24
37291;BME280;23175;-33.706;151.094;2022-12-07T08:34:28;98553.57;;;17.58;34.21
37291;BME280;23175;-33.706;151.094;2022-12-07T08:36:58;98561.93;;;19.23;32.97
37291;BME280;23175;-33.706;151.094;2022-12-07T08:39:28;98560.19;;;22.27;29.74
37291;BME280;23175;-33.706;151.094;2022-12-07T08:41:58;98543.77;;;20.75;32.33
37291;BME280;23175;-33.706;151.094;2022-12-07T08:44:28;98529.40;;;16.98;35.29
37291;BME280;23175;-33.706;151.094;2022-12-07T08:47:00;98515.88;;;18.24;33.41
37291;BME280;23175;-33.706;151.094;2022-12-07T08:49:35;98499.07;;;18.01;34.35
37291;BME280;23175;-33.706;151.094;2022-12-07T08:52:07;98496.42;;;18.11;35.00
37291;BME280;23175;-33.706;151.094;2022-12-07T08:54:38;98501.93;;;19.53;33.15
37291;BME280;23175;-33.706;151.094;2022-12-07T08:57:10;98503.52;;;19.68;33.12
37291;BME280;23175;-33.706;151.094;2022-12-07T08:59:41;98499.35;;;20.89;31.50
37291;BME280;23175;-33.706;151.094;2022-12-07T09:02:11;98486.41;;;21.31;30.70
37291;BME280;23175;-33.706;151.094;2022-12-07T09:04:41;98505.23;;;18.50;33.94
37291;BME280;23175;-33.706;151.094;2022-12-07T09:07:11;98512.32;;;20.46;31.89
37291;BME280;23175;-33.706;151.094;2022-12-07T09:09:41;98491.67;;;19.62;32.64
37291;BME280;23175;-33.706;151.094;2022-12-07T09:12:11;98488.14;;;22.26;30.01
37291;BME280;23175;-33.706;151.094;2022-12-07T09:14:41;98482.94;;;21.94;30.36
37291;BME280;23175;-33.706;151.094;2022-12-07T09:17:12;98507.36;;;21.73;30.99
37291;BME280;23175;-33.706;151.094;2022-12-07T09:19:42;98516.93;;;23.10;29.54
37291;BME280;23175;-33.706;151.094;2022-12-07T09:22:13;98519.54;;;22.57;30.44
37291;BME280;23175;-33.706;151.094;2022-12-07T09:24:43;98516.39;;;23.37;30.29
37291;BME280;23175;-33.706;151.094;2022-12-07T09:27:13;98513.80;;;22.65;30.97
37291;BME280;23175;-33.706;151.094;2022-12-07T09:29:43;98512.44;;;21.64;31.67
37291;BME280;23175;-33.706;151.094;2022-12-07T09:32:14;98481.45;;;21.44;32.71
37291;BME280;23175;-33.706;151.094;2022-12-07T09:34:44;98483.15;;;21.98;30.42
37291;BME280;23175;-33.706;151.094;2022-12-07T09:37:14;98433.25;;;20.93;31.79
37291;BME280;23175;-33.706;151.094;2022-12-07T09:39:44;98419.66;;;21.23;31.68
37291;BME280;23175;-33.706;151.094;2022-12-07T09:42:27;98449.68;;;21.33;31.47
37291;BME280;23175;-33.706;151.094;2022-12-07T09:44:59;98462.34;;;21.91;30.95
37291;BME280;23175;-33.706;151.094;2022-12-07T09:47:30;98461.92;;;18.72;34.20
37291;BME280;23175;-33.706;151.094;2022-12-07T09:50:13;98490.19;;;22.67;31.20
37291;BME280;23175;-33.706;151.094;2022-12-07T09:52:44;98499.03;;;23.59;30.80
37291;BME280;23175;-33.706;151.094;2022-12-07T09:55:18;98493.47;;;23.07;30.92
37291;BME280;23175;-33.706;151.094;2022-12-07T09:57:50;98500.12;;;22.84;31.09
37291;BME280;23175;-33.706;151.094;2022-12-07T10:00:22;98506.02;;;23.42;30.11
37291;BME280;23175;-33.706;151.094;2022-12-07T10:02:57;98510.70;;;23.21;30.38
37291;BME280;23175;-33.706;151.094;2022-12-07T10:05:32;98502.49;;;21.24;32.12
37291;BME280;23175;-33.706;151.094;2022-12-07T10:08:04;98516.99;;;22.33;31.62
37291;BME280;23175;-33.706;151.094;2022-12-07T10:10:36;98494.08;;;19.08;35.24
37291;BME280;23175;-33.706;151.094;2022-12-07T10:13:08;98466.12;;;22.38;31.86
37291;BME280;23175;-33.706;151.094;2022-12-07T10:15:48;98460.02;;;21.82;32.10
37291;BME280;23175;-33.706;151.094;2022-12-07T10:18:28;98465.49;;;23.12;31.69
37291;BME280;23175;-33.706;151.094;2022-12-07T10:21:05;98467.08;;;22.71;31.32
37291;BME280;23175;-33.706;151.094;2022-12-07T10:23:38;98460.61;;;21.53;32.82
37291;BME280;23175;-33.706;151.094;2022-12-07T10:26:32;98451.79;;;22.93;31.57
37291;BME280;23175;-33.706;151.094;2022-12-07T10:29:14;98464.04;;;23.24;31.28
37291;BME280;23175;-33.706;151.094;2022-12-07T10:31:45;98486.47;;;22.98;31.08
37291;BME280;23175;-33.706;151.094;2022-12-07T10:34:24;98487.98;;;22.90;31.28
37291;BME280;23175;-33.706;151.094;2022-12-07T10:37:06;98482.95;;;23.10;31.80
37291;BME280;23175;-33.706;151.094;2022-12-07T10:39:44;98488.30;;;22.63;31.92
37291;BME280;23175;-33.706;151.094;2022-12-07T10:42:20;98492.03;;;22.22;32.41
37291;BME280;23175;-33.706;151.094;2022-12-07T10:45:06;98497.91;;;22.25;32.61
37291;BME280;23175;-33.706;151.094;2022-12-07T10:47:39;98493.23;;;22.05;32.05
37291;BME280;23175;-33.706;151.094;2022-12-07T10:50:27;98491.85;;;19.68;35.13
37291;BME280;23175;-33.706;151.094;2022-12-07T10:54:12;98498.50;;;21.41;33.15
37291;BME280;23175;-33.706;151.094;2022-12-07T10:56:55;98490.57;;;21.94;32.52
37291;BME280;23175;-33.706;151.094;2022-12-07T10:59:57;98485.86;;;18.79;35.07
37291;BME280;23175;-33.706;151.094;2022-12-07T11:02:46;98464.28;;;20.86;33.05
37291;BME280;23175;-33.706;151.094;2022-12-07T11:05:28;98464.42;;;22.43;32.32
37291;BME280;23175;-33.706;151.094;2022-12-07T11:08:09;98473.96;;;22.52;31.68
37291;BME280;23175;-33.706;151.094;2022-12-07T11:10:50;98471.49;;;22.21;31.86
37291;BME280;23175;-33.706;151.094;2022-12-07T11:13:29;98484.23;;;22.38;31.60
37291;BME280;23175;-33.706;151.094;2022-12-07T11:16:13;98486.65;;;22.81;31.60
37291;BME280;23175;-33.706;151.094;2022-12-07T11:18:54;98490.64;;;22.65;31.88
37291;BME280;23175;-33.706;151.094;2022-12-07T11:21:33;98487.54;;;20.63;33.88
37291;BME280;23175;-33.706;151.094;2022-12-07T11:24:13;98494.95;;;20.71;34.11
37291;BME280;23175;-33.706;151.094;2022-12-07T11:26:52;98497.45;;;22.16;32.54
37291;BME280;23175;-33.706;151.094;2022-12-07T11:29:39;98484.13;;;22.02;32.81
37291;BME280;23175;-33.706;151.094;2022-12-07T11:32:26;98488.52;;;21.89;33.43
37291;BME280;23175;-33.706;151.094;2022-12-07T11:35:05;98491.12;;;22.31;32.29
37291;BME280;23175;-33.706;151.094;2022-12-07T11:37:39;98489.30;;;22.23;32.64
37291;BME280;23175;-33.706;151.094;2022-12-07T11:40:17;98477.04;;;22.03;33.41
37291;BME280;23175;-33.706;151.094;2022-12-07T11:42:55;98478.75;;;22.14;33.02
37291;BME280;23175;-33.706;151.094;2022-12-07T11:45:30;98484.89;;;21.00;33.94
37291;BME280;23175;-33.706;151.094;2022-12-07T11:48:04;98496.84;;;21.76;32.94
37291;BME280;23175;-33.706;151.094;2022-12-07T11:50:39;98493.87;;;19.04;36.78
37291;BME280;23175;-33.706;151.094;2022-12-07T11:53:17;98485.63;;;21.25;34.54
37291;BME280;23175;-33.706;151.094;2022-12-07T11:55:52;98483.00;;;19.65;36.31
37291;BME280;23175;-33.706;151.094;2022-12-07T11:58:40;98489.02;;;19.56;34.86
37291;BME280;23175;-33.706;151.094;2022-12-07T12:01:22;98481.73;;;19.96;34.24
37291;BME280;23175;-33.706;151.094;2022-12-07T12:03:56;98475.26;;;18.78;36.40
37291;BME280;23175;-33.706;151.094;2022-12-07T12:06:28;98470.65;;;20.49;33.79
37291;BME280;23175;-33.706;151.094;2022-12-07T12:09:03;98479.20;;;17.17;36.88
37291;BME280;23175;-33.706;151.094;2022-12-07T12:11:49;98487.76;;;20.79;33.37
37291;BME280;23175;-33.706;151.094;2022-12-07T12:14:39;98498.31;;;19.74;34.60
37291;BME280;23175;-33.706;151.094;2022-12-07T12:17:27;98490.06;;;21.16;33.84
37291;BME280;23175;-33.706;151.094;2022-12-07T12:20:05;98484.22;;;21.55;34.37
37291;BME280;23175;-33.706;151.094;2022-12-07T12:22:46;98495.93;;;20.95;35.76
37291;BME280;23175;-33.706;151.094;2022-12-07T12:25:22;98501.39;;;19.15;37.39
37291;BME280;23175;-33.706;151.094;2022-12-07T12:27:56;98486.67;;;20.53;36.36
37291;BME280;23175;-33.706;151.094;2022-12-07T12:30:34;98475.68;;;19.83;36.26
37291;BME280;23175;-33.706;151.094;2022-12-07T12:33:12;98492.10;;;21.35;34.25
37291;BME280;23175;-33.706;151.094;2022-12-07T12:35:44;98500.37;;;20.52;35.47
37291;BME280;23175;-33.706;151.094;2022-12-07T12:38:32;98504.48;;;21.48;34.50
37291;BME280;23175;-33.706;151.094;2022-12-07T12:41:03;98499.30;;;20.78;35.20
37291;BME280;23175;-33.706;151.094;2022-12-07T12:43:53;98512.44;;;21.00;35.19
37291;BME280;23175;-33.706;151.094;2022-12-07T12:46:56;98510.52;;;20.40;35.61
37291;BME280;23175;-33.706;151.094;2022-12-07T12:49:39;98503.55;;;19.15;36.57
37291;BME280;23175;-33.706;151.094;2022-12-07T12:53:19;98521.95;;;17.53;37.78
37291;BME280;23175;-33.706;151.094;2022-12-07T12:56:33;98532.16;;;16.77;37.80
37291;BME280;23175;-33.706;151.094;2022-12-07T12:59:30;98539.09;;;20.15;34.09
37291;BME280;23175;-33.706;151.094;2022-12-07T13:02:19;98546.08;;;18.24;36.14
37291;BME280;23175;-33.706;151.094;2022-12-07T13:04:53;98545.73;;;17.76;36.85
37291;BME280;23175;-33.706;151.094;2022-12-07T13:07:58;98549.55;;;19.23;34.94